Time;durP1;ratioP1;P1;durP2;ratioP2;P2;SDS_P1;SDS_P2;PMS_P1;PMS_P2;Temp;Humidity;BMP_temperature;BMP_pressure;BME280_temperature;BME280_humidity;BME280_pressure;Samples;Min_cycle;Max_cycle;Signal;HPM_P1;HPM_P2
2022/06/03 00:00:39;;;;;;;1.90;1.40;;;;;;;13.92;57.65;101229.84;4968339;28;20049;-70
2022/06/03 00:03:33;;;;;;;1.95;1.27;;;;;;;13.89;57.60;101224.81;4981171;28;20029;-71
2022/06/03 00:06:21;;;;;;;1.23;1.23;;;;;;;13.82;57.81;101221.91;4988008;28;20046;-71
2022/06/03 00:08:54;;;;;;;1.60;1.50;;;;;;;13.83;57.98;101223.59;4971338;28;20750;-71
2022/06/03 00:11:41;;;;;;;2.15;1.40;;;;;;;13.82;57.84;101215.72;4987348;28;20037;-72
2022/06/03 00:14:28;;;;;;;1.30;1.30;;;;;;;13.87;57.61;101224.13;4984366;28;20243;-70
2022/06/03 00:17:48;;;;;;;1.40;1.30;;;;;;;13.79;57.55;101222.19;4968847;28;20027;-71
2022/06/03 00:20:25;;;;;;;1.30;1.30;;;;;;;13.74;57.30;101227.09;4896216;28;20035;-71
2022/06/03 00:22:54;;;;;;;1.40;1.40;;;;;;;13.71;57.54;101219.44;4937440;28;20769;-71
2022/06/03 00:25:31;;;;;;;1.63;1.63;;;;;;;13.66;58.18;101224.34;4968641;28;20864;-71
2022/06/03 00:28:03;;;;;;;1.50;1.50;;;;;;;13.67;57.35;101226.84;4967067;28;20025;-72
2022/06/03 00:30:41;;;;;;;1.85;1.75;;;;;;;13.74;57.27;101232.44;4950899;28;20990;-71
2022/06/03 00:33:29;;;;;;;1.27;1.27;;;;;;;13.72;57.69;101227.25;4967231;28;20565;-70
2022/06/03 00:36:00;;;;;;;1.30;1.30;;;;;;;13.72;58.04;101223.75;4966107;28;20014;-71
2022/06/03 00:38:52;;;;;;;1.20;1.20;;;;;;;13.73;58.12;101228.94;4972105;28;20091;-70
2022/06/03 00:41:54;;;;;;;1.40;1.30;;;;;;;13.71;58.16;101230.91;4953660;28;20113;-71
2022/06/03 00:44:55;;;;;;;1.67;1.55;;;;;;;13.64;58.33;101224.47;4972031;28;21044;-71
2022/06/03 00:47:47;;;;;;;1.58;1.50;;;;;;;13.61;58.15;101224.78;4879298;28;20082;-71
2022/06/03 00:50:34;;;;;;;1.67;1.30;;;;;;;13.65;58.39;101218.19;4948288;28;20797;-71
2022/06/03 00:53:15;;;;;;;1.30;1.30;;;;;;;13.61;58.52;101222.13;4951228;28;20238;-71
2022/06/03 00:56:18;;;;;;;1.40;1.30;;;;;;;13.49;59.08;101213.47;4969152;28;20019;-73
2022/06/03 00:59:05;;;;;;;1.10;1.10;;;;;;;13.40;59.76;101206.38;4969845;28;20928;-71
2022/06/03 01:01:48;;;;;;;1.40;1.40;;;;;;;13.23;60.19;101208.75;4950961;28;20158;-71
2022/06/03 01:04:30;;;;;;;1.40;1.30;;;;;;;13.14;61.59;101214.06;4937175;28;20015;-71
2022/06/03 01:07:21;;;;;;;1.63;1.40;;;;;;;13.23;61.26;101205.25;4936314;28;20021;-72
2022/06/03 01:09:46;;;;;;;1.52;1.48;;;;;;;13.04;61.47;101212.28;4952518;28;20033;-71
2022/06/03 01:12:17;;;;;;;1.50;1.40;;;;;;;12.88;62.50;101210.16;4967729;28;20458;-71
2022/06/03 01:15:24;;;;;;;1.40;1.40;;;;;;;12.75;62.56;101206.13;4957254;28;20423;-71
2022/06/03 01:17:54;;;;;;;1.75;1.65;;;;;;;12.75;62.94;101212.28;4959160;28;20094;-71
2022/06/03 01:20:25;;;;;;;1.30;1.30;;;;;;;12.52;63.16;101209.03;4971954;28;20030;-72
2022/06/03 01:23:28;;;;;;;1.55;1.50;;;;;;;12.58;63.72;101210.28;4970192;28;20028;-71
2022/06/03 01:26:12;;;;;;;1.60;1.60;;;;;;;12.25;65.27;101215.00;4957610;28;20004;-71
2022/06/03 01:29:05;;;;;;;2.80;1.55;;;;;;;12.34;65.32;101217.69;4972217;28;20522;-71
2022/06/03 01:32:09;;;;;;;1.52;1.52;;;;;;;12.20;65.43;101212.78;4972094;28;20560;-71
2022/06/03 01:35:16;;;;;;;1.60;1.60;;;;;;;12.07;65.93;101209.50;4963787;28;20081;-71
2022/06/03 01:38:17;;;;;;;1.58;1.48;;;;;;;12.12;66.06;101215.25;4973564;28;20212;-71
2022/06/03 01:40:49;;;;;;;1.80;1.80;;;;;;;11.96;66.73;101213.94;4962335;28;20022;-71
2022/06/03 01:43:24;;;;;;;2.78;1.60;;;;;;;11.94;67.05;101213.22;4994845;28;20029;-71
2022/06/03 01:46:15;;;;;;;1.55;1.55;;;;;;;11.86;67.08;101210.41;4954784;28;20044;-71
2022/06/03 01:48:56;;;;;;;1.70;1.70;;;;;;;11.90;67.18;101208.31;4955030;28;20282;-71
2022/06/03 01:51:49;;;;;;;2.20;1.98;;;;;;;11.72;67.95;101202.78;4955765;28;20034;-71
2022/06/03 01:54:33;;;;;;;2.15;2.05;;;;;;;11.74;67.97;101198.19;4975671;28;20621;-71
2022/06/03 01:57:26;;;;;;;1.70;1.60;;;;;;;11.71;68.13;101195.81;4978505;28;21074;-70
2022/06/03 02:00:14;;;;;;;1.85;1.75;;;;;;;11.46;68.96;101192.63;4998351;28;20811;-71
2022/06/03 02:02:45;;;;;;;2.08;1.65;;;;;;;11.37;69.12;101196.06;5016246;28;20009;-70
2022/06/03 02:05:41;;;;;;;1.90;1.80;;;;;;;11.45;69.04;101193.59;5015442;28;20501;-71
2022/06/03 02:08:36;;;;;;;1.92;1.83;;;;;;;11.40;69.04;101193.16;5018773;28;20882;-70
2022/06/03 02:11:23;;;;;;;3.55;1.88;;;;;;;11.56;68.63;101179.41;5000618;28;20025;-71
2022/06/03 02:14:07;;;;;;;1.83;1.65;;;;;;;11.53;68.59;101183.16;5044995;28;20001;-70
2022/06/03 02:17:03;;;;;;;2.10;2.00;;;;;;;11.42;68.67;101183.25;5005782;28;20045;-70
2022/06/03 02:19:47;;;;;;;2.05;1.95;;;;;;;11.26;69.15;101175.78;4992338;28;20090;-70
2022/06/03 02:22:42;;;;;;;2.17;2.07;;;;;;;11.14;69.46;101175.03;4988671;28;20940;-70
2022/06/03 02:25:29;;;;;;;1.83;1.83;;;;;;;11.14;69.56;101177.69;4971071;28;20408;-70
2022/06/03 02:28:17;;;;;;;1.92;1.92;;;;;;;11.11;69.60;101169.97;4970162;28;20013;-70
2022/06/03 02:31:14;;;;;;;2.47;2.20;;;;;;;10.95;69.79;101165.97;4969062;28;20080;-70
2022/06/03 02:34:03;;;;;;;2.20;2.10;;;;;;;10.93;69.81;101175.84;4969847;28;20129;-71
2022/06/03 02:37:07;;;;;;;2.00;1.90;;;;;;;10.92;69.80;101168.88;4952336;28;20784;-71
2022/06/03 02:39:51;;;;;;;2.25;2.15;;;;;;;10.74;70.28;101160.66;4968227;28;20085;-71
2022/06/03 02:42:45;;;;;;;2.03;2.03;;;;;;;10.83;70.42;101164.38;4951024;28;20030;-72
2022/06/03 02:45:48;;;;;;;1.95;1.88;;;;;;;10.74;70.65;101159.81;4962511;28;20129;-71
2022/06/03 02:48:52;;;;;;;2.25;2.10;;;;;;;10.75;70.57;101153.56;5008115;28;20928;-72
2022/06/03 02:51:56;;;;;;;2.45;2.10;;;;;;;10.68;71.23;101161.19;4975453;28;20021;-70
2022/06/03 02:54:52;;;;;;;2.17;2.15;;;;;;;10.57;71.67;101154.09;4986982;28;20269;-70
2022/06/03 02:57:31;;;;;;;2.42;2.17;;;;;;;10.50;71.74;101152.13;5010931;28;20047;-70
2022/06/03 03:00:02;;;;;;;2.10;2.10;;;;;;;10.63;71.42;101150.97;4990309;28;20465;-70
2022/06/03 03:03:09;;;;;;;2.88;2.10;;;;;;;10.55;71.84;101150.75;5007976;28;20017;-70
2022/06/03 03:05:49;;;;;;;2.30;2.10;;;;;;;10.53;71.92;101151.84;4997084;28;20025;-70
2022/06/03 03:08:35;;;;;;;2.78;2.42;;;;;;;10.61;71.32;101152.06;4990951;28;20010;-70
2022/06/03 03:11:15;;;;;;;2.35;2.05;;;;;;;10.57;71.88;101146.16;4989641;28;20493;-71
2022/06/03 03:13:58;;;;;;;2.20;2.10;;;;;;;10.45;71.88;101155.16;4979700;28;20025;-71
2022/06/03 03:16:47;;;;;;;2.28;2.17;;;;;;;10.35;72.12;101147.13;4980690;28;20025;-71
2022/06/03 03:19:21;;;;;;;2.28;2.13;;;;;;;10.35;72.46;101157.69;4970715;28;20662;-71
2022/06/03 03:21:46;;;;;;;2.17;2.08;;;;;;;10.27;73.04;101163.56;4970952;28;20180;-71
2022/06/03 03:24:46;;;;;;;2.58;2.38;;;;;;;10.23;73.00;101162.13;4990783;28;21172;-70
2022/06/03 03:27:15;;;;;;;2.33;2.22;;;;;;;10.19;73.55;101141.34;4973068;28;20026;-71
2022/06/03 03:30:17;;;;;;;2.75;2.25;;;;;;;10.12;73.57;101155.09;4971003;28;20018;-71
2022/06/03 03:33:04;;;;;;;3.47;2.40;;;;;;;10.15;73.44;101159.25;4973661;28;20821;-72
2022/06/03 03:36:07;;;;;;;2.22;2.10;;;;;;;10.05;74.53;101147.75;4990521;28;20021;-71
2022/06/03 03:38:54;;;;;;;2.20;2.20;;;;;;;10.22;73.73;101154.31;5007242;28;20064;-70
2022/06/03 03:41:58;;;;;;;2.25;2.15;;;;;;;10.08;73.89;101151.00;4991183;28;20005;-70
2022/06/03 03:44:41;;;;;;;2.70;2.50;;;;;;;10.16;74.54;101154.84;5003945;28;20425;-71
2022/06/03 03:47:31;;;;;;;2.38;2.30;;;;;;;10.12;74.21;101159.50;4992518;28;20901;-71
2022/06/03 03:50:26;;;;;;;2.50;2.40;;;;;;;10.06;74.82;101154.72;4989707;28;20467;-71
2022/06/03 03:53:13;;;;;;;2.17;2.10;;;;;;;10.02;74.75;101162.06;4983025;28;20331;-71
2022/06/03 03:55:50;;;;;;;2.10;2.10;;;;;;;10.01;74.91;101151.59;5008020;28;20957;-71
2022/06/03 03:58:50;;;;;;;2.22;2.22;;;;;;;10.08;74.80;101155.44;4973248;28;21024;-71
2022/06/03 04:01:37;;;;;;;2.30;2.20;;;;;;;10.02;74.90;101155.94;4951620;28;20016;-73
2022/06/03 04:04:22;;;;;;;2.75;2.55;;;;;;;10.04;74.91;101159.28;4976455;28;20017;-73
2022/06/03 04:07:12;;;;;;;2.65;2.47;;;;;;;10.07;74.95;101153.78;4991382;28;20801;-73
2022/06/03 04:10:19;;;;;;;2.30;2.20;;;;;;;10.17;74.65;101141.47;5009921;28;20021;-73
2022/06/03 04:13:15;;;;;;;2.28;2.17;;;;;;;9.99;75.18;101143.81;4995695;28;20033;-72
2022/06/03 04:15:59;;;;;;;2.38;2.20;;;;;;;10.22;74.63;101144.56;4961084;28;20022;-73
2022/06/03 04:18:39;;;;;;;3.50;1.95;;;;;;;10.16;74.41;101133.69;4988181;28;20282;-73
2022/06/03 04:21:29;;;;;;;2.55;2.42;;;;;;;10.22;74.24;101128.69;4970949;28;20025;-73
2022/06/03 04:23:55;;;;;;;2.75;2.55;;;;;;;10.34;73.78;101132.19;4951936;28;20492;-72
2022/06/03 04:26:43;;;;;;;2.13;2.10;;;;;;;10.27;73.91;101129.19;4967325;28;20099;-72
2022/06/03 04:29:44;;;;;;;2.20;2.10;;;;;;;10.20;74.70;101121.88;4952875;28;20006;-72
2022/06/03 04:32:46;;;;;;;2.28;2.17;;;;;;;10.29;74.50;101127.28;4929982;28;20018;-72
2022/06/03 04:35:37;;;;;;;2.30;2.20;;;;;;;10.28;74.63;101132.69;4979310;28;20133;-72
2022/06/03 04:38:21;;;;;;;2.03;2.03;;;;;;;10.22;74.94;101123.41;4970373;28;20014;-71
2022/06/03 04:41:02;;;;;;;;;;;;;;;10.31;74.69;101130.59;4971227;28;20034;-71
2022/06/03 04:43:48;;;;;;;2.22;2.00;;;;;;;10.30;74.90;101125.44;4983722;28;19907;-72
2022/06/03 04:46:39;;;;;;;2.42;2.22;;;;;;;10.37;74.87;101131.94;4991826;28;20243;-72
2022/06/03 04:49:32;;;;;;;2.88;2.10;;;;;;;10.51;74.44;101137.94;4993946;28;20231;-72
2022/06/03 04:52:10;;;;;;;2.88;2.03;;;;;;;10.53;74.70;101130.69;4992173;28;20472;-73
2022/06/03 04:54:44;;;;;;;2.28;2.08;;;;;;;10.60;74.59;101137.16;4960246;28;20530;-72
2022/06/03 04:57:25;;;;;;;2.28;2.15;;;;;;;10.78;74.27;101124.19;4995549;28;20020;-71
2022/06/03 05:00:06;;;;;;;2.42;2.28;;;;;;;10.85;74.51;101130.66;4977870;28;20591;-72
2022/06/03 05:02:34;;;;;;;3.92;2.13;;;;;;;11.00;73.85;101136.47;4981086;28;20807;-71
2022/06/03 05:05:06;;;;;;;1.90;1.90;;;;;;;11.13;73.67;101131.78;5000470;28;20013;-72
2022/06/03 05:08:15;;;;;;;2.10;2.00;;;;;;;11.36;73.17;101128.16;4997621;28;20134;-71
2022/06/03 05:11:08;;;;;;;2.08;2.00;;;;;;;11.54;73.02;101126.53;4978372;28;20021;-72
2022/06/03 05:13:52;;;;;;;2.00;1.90;;;;;;;11.60;73.34;101126.00;4980539;28;20287;-72
2022/06/03 05:16:45;;;;;;;2.03;1.90;;;;;;;11.65;73.60;101126.44;4979827;28;20439;-72
2022/06/03 05:19:14;;;;;;;2.20;2.00;;;;;;;11.82;73.22;101114.34;5000844;28;20916;-72
2022/06/03 05:22:08;;;;;;;4.18;1.98;;;;;;;11.92;73.27;101114.38;4979394;28;20021;-72
2022/06/03 05:24:52;;;;;;;;;;;;;;;11.98;73.54;101110.38;4983291;28;20572;-73
2022/06/03 05:27:29;;;;;;;2.00;2.00;;;;;;;12.20;73.59;101114.59;4998450;28;20016;-71
2022/06/03 05:30:11;;;;;;;2.28;2.08;;;;;;;12.33;73.86;101114.31;4994977;28;20017;-73
2022/06/03 05:33:12;;;;;;;1.85;1.85;;;;;;;12.54;73.69;101106.22;4980398;28;20179;-72
2022/06/03 05:35:56;;;;;;;1.80;1.80;;;;;;;12.61;73.68;101104.69;4977479;28;20032;-72
2022/06/03 05:38:43;;;;;;;;;;;;;;;12.77;73.37;101109.41;4970380;28;20054;-72
2022/06/03 05:44:42;;;;;;;7.30;1.85;;;;;;;13.29;71.30;101102.84;4986687;28;20040;-72
2022/06/03 05:47:21;;;;;;;1.70;1.70;;;;;;;13.44;69.85;101103.22;4950316;28;20276;-72
2022/06/03 05:49:58;;;;;;;1.70;1.60;;;;;;;13.58;70.51;101105.41;4960242;28;20940;-71
2022/06/03 05:52:26;;;;;;;1.73;1.70;;;;;;;13.73;69.72;101090.63;4988291;28;20495;-72
2022/06/03 05:55:10;;;;;;;2.70;1.65;;;;;;;13.92;68.73;101096.81;4972410;28;20109;-72
2022/06/03 05:57:41;;;;;;;1.80;1.70;;;;;;;14.01;68.11;101100.41;4957407;28;20045;-73
2022/06/03 06:00:39;;;;;;;2.78;1.48;;;;;;;14.11;66.05;101087.03;4941348;28;20014;-73
2022/06/03 06:03:19;;;;;;;2.25;1.42;;;;;;;14.34;64.80;101092.72;4954455;28;20002;-72
2022/06/03 06:06:11;;;;;;;1.40;1.40;;;;;;;14.43;64.74;101089.16;4971506;28;20360;-73
2022/06/03 06:09:16;;;;;;;1.75;1.73;;;;;;;14.52;63.83;101087.38;4975057;28;20032;-73
2022/06/03 06:12:07;;;;;;;1.30;1.30;;;;;;;14.70;62.22;101085.56;4937032;28;20092;-72
2022/06/03 06:14:57;;;;;;;1.33;1.30;;;;;;;14.77;61.90;101077.78;4954236;28;20021;-73
2022/06/03 06:17:32;;;;;;;1.30;1.30;;;;;;;14.91;59.46;101084.38;4992435;28;20018;-72
2022/06/03 06:19:59;;;;;;;1.50;1.40;;;;;;;15.02;59.16;101085.94;5008785;28;20133;-73
2022/06/03 06:22:33;;;;;;;1.25;1.23;;;;;;;15.14;58.91;101089.16;4973869;28;20410;-73
2022/06/03 06:25:17;;;;;;;;;;;;;;;15.25;58.63;101092.38;4977345;28;20420;-73
2022/06/03 06:28:25;;;;;;;1.70;1.20;;;;;;;15.38;58.00;101083.94;5009840;28;20422;-73
2022/06/03 06:31:14;;;;;;;1.20;1.20;;;;;;;15.47;57.39;101079.50;4991094;28;20405;-73
2022/06/03 06:34:07;;;;;;;1.85;1.00;;;;;;;15.67;55.68;101074.72;4992701;28;20120;-72
2022/06/03 06:36:54;;;;;;;1.00;1.00;;;;;;;15.85;56.21;101073.78;5009647;28;20099;-72
2022/06/03 06:39:44;;;;;;;1.25;1.08;;;;;;;15.99;57.50;101080.31;4976345;28;21108;-73
2022/06/03 06:42:19;;;;;;;0.90;0.90;;;;;;;16.12;55.88;101078.84;4957096;28;20598;-72
2022/06/03 06:44:50;;;;;;;1.08;1.08;;;;;;;16.20;54.76;101074.50;4970325;28;20140;-73
2022/06/03 06:47:26;;;;;;;2.13;1.10;;;;;;;16.30;54.71;101080.53;4952490;28;20865;-73
2022/06/03 06:49:54;;;;;;;2.50;0.98;;;;;;;16.41;54.46;101074.03;4971945;28;20403;-73
2022/06/03 06:52:29;;;;;;;2.10;1.27;;;;;;;16.53;54.68;101071.88;4987214;28;20037;-73
2022/06/03 06:55:12;;;;;;;1.00;1.00;;;;;;;16.64;54.69;101069.69;4988473;28;20041;-73
2022/06/03 06:57:44;;;;;;;1.33;1.23;;;;;;;16.77;54.76;101071.81;4966538;28;20046;-73
2022/06/03 07:00:24;;;;;;;0.90;0.90;;;;;;;16.83;54.49;101073.81;4949497;28;20270;-73
2022/06/03 07:03:17;;;;;;;1.40;1.40;;;;;;;16.91;54.45;101082.88;4932494;28;20933;-73
2022/06/03 07:06:21;;;;;;;1.70;1.70;;;;;;;17.02;53.61;101084.34;4940176;28;20308;-73
2022/06/03 07:09:14;;;;;;;1.00;1.00;;;;;;;17.12;53.47;101091.16;4893049;28;20996;-73
2022/06/03 07:12:19;;;;;;;1.40;0.80;;;;;;;17.28;52.29;101095.63;4948646;28;20052;-73
2022/06/03 07:14:59;;;;;;;1.10;1.10;;;;;;;17.37;51.44;101087.56;4888738;28;20026;-73
2022/06/03 07:20:22;;;;;;;1.13;1.10;;;;;;;17.47;50.96;101089.03;4929576;28;20806;-72
2022/06/03 07:22:52;;;;;;;2.05;0.80;;;;;;;17.50;50.94;101078.00;4915311;28;20225;-72
2022/06/03 07:25:33;;;;;;;1.45;1.00;;;;;;;17.57;51.63;101083.47;4932966;28;20114;-72
2022/06/03 07:28:08;;;;;;;2.53;0.90;;;;;;;17.66;50.31;101084.28;4952606;28;20022;-73
2022/06/03 07:30:40;;;;;;;1.20;1.10;;;;;;;17.73;49.88;101079.88;4934563;28;20014;-73
2022/06/03 07:33:49;;;;;;;1.00;1.00;;;;;;;17.79;49.45;101071.13;4956255;28;20042;-72
2022/06/03 07:36:54;;;;;;;1.05;1.00;;;;;;;17.86;49.20;101056.03;4917258;28;20198;-72
2022/06/03 07:39:53;;;;;;;1.58;1.15;;;;;;;17.97;51.44;101054.81;4973625;28;20624;-72
2022/06/03 07:42:45;;;;;;;3.13;1.00;;;;;;;18.08;50.51;101056.25;4956849;28;20021;-72
2022/06/03 07:45:40;;;;;;;0.90;0.90;;;;;;;18.17;50.46;101051.69;4973990;28;20034;-73
2022/06/03 07:48:09;;;;;;;1.10;0.90;;;;;;;18.26;51.02;101049.75;4952652;28;20092;-73
2022/06/03 07:50:37;;;;;;;0.90;0.90;;;;;;;18.47;48.99;101051.75;4951958;28;20064;-73
2022/06/03 07:53:07;;;;;;;0.80;0.80;;;;;;;18.60;48.25;101037.72;4955048;28;20142;-73
2022/06/03 07:55:35;;;;;;;2.55;1.20;;;;;;;18.64;46.66;101036.34;4972216;28;20002;-72
2022/06/03 07:58:08;;;;;;;1.00;1.00;;;;;;;18.73;47.43;101043.31;4939978;28;20044;-73
2022/06/03 08:00:35;;;;;;;0.90;0.90;;;;;;;18.80;48.06;101043.41;4956955;28;20447;-72
2022/06/03 08:03:13;;;;;;;0.93;0.93;;;;;;;18.87;49.21;101041.69;4956529;28;20993;-73
2022/06/03 08:05:39;;;;;;;0.80;0.80;;;;;;;18.93;49.66;101032.06;4974148;28;20486;-72
2022/06/03 08:10:57;;;;;;;1.00;0.90;;;;;;;19.19;46.64;101035.13;4965023;28;20067;-73
2022/06/03 08:13:43;;;;;;;3.90;1.15;;;;;;;19.30;47.15;101028.41;4962913;28;20470;-72
2022/06/03 08:16:34;;;;;;;1.05;0.95;;;;;;;19.41;48.44;101027.13;4983611;28;20446;-73
2022/06/03 08:19:03;;;;;;;1.52;1.10;;;;;;;19.52;47.94;101018.56;4984163;28;20036;-72
2022/06/03 08:21:38;;;;;;;1.02;1.02;;;;;;;19.59;47.16;101015.97;4981447;28;20009;-73
2022/06/03 08:24:04;;;;;;;0.90;0.90;;;;;;;19.81;47.87;101021.38;4948942;28;20028;-73
2022/06/03 08:26:30;;;;;;;1.30;1.30;;;;;;;19.90;47.07;101013.00;4976910;28;20036;-72
2022/06/03 08:29:06;;;;;;;5.70;1.20;;;;;;;20.07;46.15;101018.94;5002432;28;20021;-72
2022/06/03 08:31:31;;;;;;;1.38;1.00;;;;;;;20.25;47.56;101009.59;4997439;28;20874;-72
2022/06/03 08:34:00;;;;;;;1.58;0.90;;;;;;;20.46;45.35;100999.81;4981277;28;20059;-72
2022/06/03 08:36:29;;;;;;;0.90;0.90;;;;;;;20.58;43.75;101001.78;5000061;28;20130;-73
2022/06/03 08:38:55;;;;;;;0.82;0.82;;;;;;;20.68;44.26;101006.00;4984050;28;20503;-73
2022/06/03 08:41:48;;;;;;;1.88;1.20;;;;;;;20.90;46.06;101010.28;4979928;28;20013;-73
2022/06/03 08:44:38;;;;;;;1.45;1.35;;;;;;;21.11;43.55;101005.84;5015242;28;20233;-72
2022/06/03 08:47:28;;;;;;;1.58;1.48;;;;;;;21.30;45.53;101015.00;5036742;28;20059;-73
2022/06/03 08:50:27;;;;;;;1.00;1.00;;;;;;;21.49;45.79;101002.66;4996862;28;20020;-73
2022/06/03 08:53:24;;;;;;;1.38;0.90;;;;;;;21.54;43.77;101004.75;4937059;28;20018;-73
2022/06/03 08:56:05;;;;;;;1.08;0.90;;;;;;;21.83;46.52;101010.81;5004526;28;20013;-72
2022/06/03 08:58:58;;;;;;;0.93;0.93;;;;;;;22.06;43.50;101018.53;4970899;28;20236;-75
2022/06/03 09:01:39;;;;;;;0.80;0.80;;;;;;;22.27;43.86;100994.06;4985439;28;21032;-73
2022/06/03 09:04:19;;;;;;;1.15;0.80;;;;;;;22.37;43.49;100990.16;5005424;28;20028;-73
2022/06/03 09:07:23;;;;;;;0.80;0.80;;;;;;;22.50;44.47;100992.81;5002204;28;20382;-74
2022/06/03 09:10:12;;;;;;;0.80;0.80;;;;;;;22.78;41.36;100995.25;4969331;28;20487;-73
2022/06/03 09:13:06;;;;;;;1.83;0.90;;;;;;;22.97;42.62;100998.94;4961933;28;20040;-73
2022/06/03 09:15:39;;;;;;;0.90;0.90;;;;;;;23.28;43.60;100992.00;4962223;28;20062;-73
2022/06/03 09:18:17;;;;;;;1.02;0.90;;;;;;;23.44;42.36;100992.53;4983034;28;20299;-73
2022/06/03 09:20:52;;;;;;;1.60;0.82;;;;;;;23.32;44.13;100990.50;4967587;28;20005;-73
2022/06/03 09:23:18;;;;;;;1.00;1.00;;;;;;;22.97;41.16;100990.84;4966897;28;20017;-73
2022/06/03 09:25:52;;;;;;;0.93;0.93;;;;;;;22.83;40.71;100985.69;4967471;28;20029;-73
2022/06/03 09:28:21;;;;;;;0.80;0.80;;;;;;;22.94;42.07;100983.19;4979925;28;20365;-73
2022/06/03 09:30:47;;;;;;;0.90;0.90;;;;;;;23.21;41.56;100987.66;4987451;28;20041;-73
2022/06/03 09:33:13;;;;;;;2.05;0.88;;;;;;;23.54;39.88;100992.88;4970396;28;20021;-73
2022/06/03 09:35:41;;;;;;;0.90;0.80;;;;;;;23.73;39.18;100979.47;4969014;28;20018;-73
2022/06/03 09:38:06;;;;;;;1.23;0.88;;;;;;;23.95;39.02;100983.47;4954972;28;20037;-73
2022/06/03 09:40:40;;;;;;;0.75;0.75;;;;;;;23.96;40.36;100979.72;4984669;28;20877;-73
2022/06/03 09:43:25;;;;;;;0.80;0.80;;;;;;;23.86;42.48;100975.81;4985214;28;20021;-73
2022/06/03 09:45:52;;;;;;;0.90;0.90;;;;;;;24.33;41.10;100977.13;4982380;28;20010;-74
2022/06/03 09:48:20;;;;;;;2.28;1.20;;;;;;;24.64;39.26;100963.75;4970954;28;20022;-74
2022/06/03 09:50:47;;;;;;;1.52;0.90;;;;;;;24.91;39.48;100964.25;4952508;28;20002;-74
2022/06/03 09:53:12;;;;;;;0.90;0.90;;;;;;;24.90;38.03;100961.78;4953504;28;20053;-73
2022/06/03 09:55:40;;;;;;;3.33;0.77;;;;;;;24.84;38.29;100966.22;4947886;28;20032;-73
2022/06/03 09:58:08;;;;;;;0.93;0.85;;;;;;;25.27;37.74;100962.56;4973843;28;20874;-72
2022/06/03 10:00:45;;;;;;;0.80;0.80;;;;;;;25.95;36.97;100957.78;4975014;28;19997;-72
2022/06/03 10:03:11;;;;;;;1.30;0.70;;;;;;;26.16;35.22;100959.13;4991866;28;20018;-74
2022/06/03 10:05:36;;;;;;;0.80;0.80;;;;;;;25.68;35.75;100952.81;4990821;28;20090;-74
2022/06/03 10:08:03;;;;;;;0.80;0.70;;;;;;;25.98;36.68;100954.59;4956088;28;20052;-73
2022/06/03 10:13:13;;;;;;;0.63;0.63;;;;;;;26.38;34.38;100953.94;4970618;28;20110;-73
2022/06/03 10:15:47;;;;;;;0.70;0.70;;;;;;;25.83;33.66;100951.53;4962193;28;20022;-73
2022/06/03 10:18:31;;;;;;;1.45;0.70;;;;;;;25.59;32.60;100953.38;4968824;28;21074;-73
2022/06/03 10:21:16;;;;;;;1.10;0.70;;;;;;;26.05;33.57;100947.22;4937644;28;20163;-74
2022/06/03 10:23:43;;;;;;;0.70;0.70;;;;;;;26.43;30.88;100947.78;4954201;28;21128;-73
2022/06/03 10:26:09;;;;;;;0.60;0.60;;;;;;;26.35;30.29;100942.72;4969317;28;20967;-73
2022/06/03 10:28:36;;;;;;;0.70;0.70;;;;;;;26.84;31.94;100931.59;4969360;28;20143;-74
2022/06/03 10:31:04;;;;;;;0.70;0.70;;;;;;;26.87;31.19;100934.63;4952531;28;20880;-73
2022/06/03 10:33:29;;;;;;;1.15;0.80;;;;;;;26.61;32.51;100938.69;4955792;28;20057;-73
2022/06/03 10:35:56;;;;;;;0.60;0.60;;;;;;;26.23;30.73;100942.75;4954342;28;20022;-74
2022/06/03 10:38:22;;;;;;;0.70;0.70;;;;;;;26.01;32.22;100935.19;4971832;28;20064;-73
2022/06/03 10:40:51;;;;;;;1.05;0.68;;;;;;;26.21;31.24;100924.00;4956942;28;20006;-73
2022/06/03 10:43:22;;;;;;;1.17;0.70;;;;;;;26.02;32.29;100915.16;4947697;28;20021;-73
2022/06/03 10:45:47;;;;;;;3.72;0.98;;;;;;;26.55;33.37;100923.34;4963737;28;20318;-74
2022/06/03 10:48:24;;;;;;;1.92;1.40;;;;;;;27.38;30.30;100932.06;4962843;28;20031;-73
2022/06/03 10:50:49;;;;;;;2.78;2.15;;;;;;;28.09;31.12;100925.34;4945613;28;20711;-73
2022/06/03 11:01:51;;;;;;;0.80;0.80;;;;;;;27.35;31.16;100921.69;4976615;28;20516;-73
2022/06/03 11:04:39;;;;;;;1.13;0.80;;;;;;;27.31;30.62;100917.78;4942786;28;20091;-73
2022/06/03 11:07:25;;;;;;;1.27;1.00;;;;;;;27.11;31.50;100912.00;4959513;28;20026;-74
2022/06/03 11:09:54;;;;;;;1.33;1.02;;;;;;;26.79;33.11;100905.13;4926993;28;20278;-73
2022/06/03 11:12:23;;;;;;;0.98;0.90;;;;;;;26.87;32.90;100912.09;4942830;28;20077;-73
2022/06/03 11:14:48;;;;;;;1.88;0.70;;;;;;;27.05;32.37;100908.38;4943652;28;20892;-73
2022/06/03 11:17:20;;;;;;;0.90;0.90;;;;;;;27.67;33.56;100913.00;4956854;28;20029;-73
2022/06/03 11:19:47;;;;;;;1.35;0.77;;;;;;;28.31;31.67;100908.25;4992457;28;20059;-74
2022/06/03 11:22:14;;;;;;;1.25;1.02;;;;;;;28.94;29.75;100898.69;4956588;28;20125;-73
2022/06/03 11:24:40;;;;;;;0.82;0.82;;;;;;;29.15;28.31;100893.47;4975130;28;20022;-73
2022/06/03 11:27:07;;;;;;;1.60;1.30;;;;;;;29.00;29.69;100896.84;4961810;28;20036;-73
2022/06/03 11:29:33;;;;;;;1.10;0.80;;;;;;;28.43;29.78;100890.72;4941687;28;21084;-73
2022/06/03 11:31:59;;;;;;;0.75;0.75;;;;;;;28.43;29.96;100892.63;4972256;28;20025;-73
2022/06/03 11:34:27;;;;;;;19.15;1.35;;;;;;;28.69;28.62;100879.34;4978376;28;20017;-73
2022/06/03 11:37:03;;;;;;;16.42;1.42;;;;;;;28.71;29.85;100875.31;4992103;28;20531;-74
2022/06/03 11:39:48;;;;;;;3.53;0.90;;;;;;;28.32;28.31;100858.19;4978936;28;20025;-74
2022/06/03 11:42:27;;;;;;;1.40;0.82;;;;;;;29.15;28.29;100873.53;4990880;28;20291;-73
2022/06/03 11:45:19;;;;;;;0.70;0.70;;;;;;;29.24;29.74;100861.13;4994704;28;20399;-72
2022/06/03 11:48:08;;;;;;;1.98;1.00;;;;;;;29.74;28.48;100859.88;4977121;28;20113;-73
2022/06/03 11:50:34;;;;;;;21.63;1.35;;;;;;;30.11;28.20;100859.03;5001287;28;20205;-73
2022/06/03 11:52:59;;;;;;;1.23;0.80;;;;;;;30.17;29.10;100839.97;4976894;28;20995;-73
2022/06/03 11:55:27;;;;;;;207.48;45.10;;;;;;;30.44;26.30;100835.16;5006610;28;20018;-73
2022/06/03 11:58:04;;;;;;;7.75;1.27;;;;;;;29.21;28.60;100839.81;4993858;28;20018;-73
2022/06/03 12:00:32;;;;;;;4.28;0.93;;;;;;;28.65;30.54;100843.63;4976016;28;20011;-73
2022/06/03 12:03:06;;;;;;;13.55;1.35;;;;;;;28.40;31.27;100844.97;5001701;28;20639;-74
2022/06/03 12:05:34;;;;;;;1.10;1.10;;;;;;;28.90;30.78;100844.97;5027310;28;20009;-72
2022/06/03 12:08:06;;;;;;;1.95;1.00;;;;;;;28.85;30.40;100847.66;4996365;28;20028;-73
2022/06/03 12:10:45;;;;;;;1.20;0.80;;;;;;;29.43;30.26;100848.75;4997555;28;20025;-73
2022/06/03 12:13:18;;;;;;;1.10;1.02;;;;;;;29.36;31.75;100845.44;4980535;28;20033;-73
2022/06/03 12:15:53;;;;;;;0.80;0.80;;;;;;;29.26;29.74;100848.06;4958592;28;20562;-73
2022/06/03 12:18:42;;;;;;;1.05;0.70;;;;;;;29.22;29.34;100830.53;4975933;28;20817;-73
2022/06/03 12:21:46;;;;;;;33.10;2.30;;;;;;;30.31;29.01;100833.72;4978528;28;20166;-73
2022/06/03 12:24:26;;;;;;;3.80;1.05;;;;;;;30.98;26.61;100831.19;4908015;28;20015;-73
2022/06/03 12:26:52;;;;;;;1.40;1.00;;;;;;;30.96;28.78;100833.38;4905639;28;20012;-73
2022/06/03 12:29:36;;;;;;;1.08;0.80;;;;;;;30.76;28.36;100825.16;4918969;28;20090;-73
2022/06/03 12:32:26;;;;;;;1.00;1.00;;;;;;;30.23;28.43;100825.22;4939143;28;20045;-73
2022/06/03 12:34:51;;;;;;;0.80;0.80;;;;;;;30.00;29.77;100835.50;4950454;28;20014;-73
2022/06/03 12:37:29;;;;;;;0.77;0.77;;;;;;;29.30;32.14;100830.09;4968355;28;20043;-72
2022/06/03 12:40:22;;;;;;;0.90;0.90;;;;;;;28.98;30.57;100839.06;4918019;28;20057;-72
2022/06/03 12:42:48;;;;;;;0.80;0.80;;;;;;;28.95;31.91;100831.38;4981304;28;20024;-73
2022/06/03 12:45:39;;;;;;;1.38;1.17;;;;;;;28.85;31.12;100831.31;4959042;28;20026;-73
2022/06/03 12:48:33;;;;;;;0.90;0.90;;;;;;;28.67;32.69;100833.31;4951907;28;20088;-73
2022/06/03 12:51:21;;;;;;;1.07;0.87;;;;;;;28.43;30.84;100836.28;4921444;28;20010;-73
2022/06/03 12:53:47;;;;;;;0.88;0.70;;;;;;;28.27;30.13;100834.44;4949962;28;20034;-73